createdAt,value
2024-01-22T00:01:46.634Z,8.50
2024-01-22T00:04:13.641Z,8.60
2024-01-22T00:06:41.126Z,7.72
2024-01-22T00:09:08.213Z,4.32
2024-01-22T00:11:35.367Z,8.07
2024-01-22T00:14:02.079Z,6.45
2024-01-22T00:16:28.758Z,5.47
2024-01-22T00:18:55.516Z,6.00
2024-01-22T00:21:22.286Z,4.05
2024-01-22T00:23:49.137Z,7.78
2024-01-22T00:26:20.769Z,4.68
2024-01-22T00:28:47.387Z,5.78
2024-01-22T00:31:13.982Z,3.65
2024-01-22T00:33:43.191Z,3.85
2024-01-22T00:36:13.735Z,4.15
2024-01-22T00:38:42.016Z,3.75
2024-01-22T00:41:09.499Z,4.25
2024-01-22T00:43:37.856Z,3.22
2024-01-22T00:46:05.190Z,2.55
2024-01-22T00:48:32.027Z,2.78
2024-01-22T00:50:58.816Z,2.97
2024-01-22T00:53:25.520Z,4.28
2024-01-22T00:55:52.143Z,5.13
2024-01-22T00:58:18.831Z,4.57
2024-01-22T01:00:45.530Z,2.90
2024-01-22T01:03:12.397Z,2.92
2024-01-22T01:05:39.124Z,3.92
2024-01-22T01:08:06.149Z,2.20
2024-01-22T01:10:33.515Z,3.28
2024-01-22T01:13:00.324Z,3.17
2024-01-22T01:15:27.011Z,1.92
2024-01-22T01:17:53.820Z,4.55
2024-01-22T01:20:20.520Z,2.97
2024-01-22T01:22:47.269Z,2.15
2024-01-22T01:25:13.963Z,2.30
2024-01-22T01:27:40.847Z,2.83
2024-01-22T01:30:08.322Z,2.42
2024-01-22T01:32:35.414Z,2.88
2024-01-22T01:35:02.076Z,2.88
2024-01-22T01:37:28.720Z,2.95
2024-01-22T01:39:55.346Z,3.15
2024-01-22T01:42:22.973Z,2.85
2024-01-22T01:44:51.624Z,4.80
2024-01-22T01:47:18.985Z,2.65
2024-01-22T01:49:47.661Z,3.20
2024-01-22T01:52:16.961Z,4.10
2024-01-22T01:54:46.109Z,1.40
2024-01-22T01:57:14.835Z,2.05
2024-01-22T01:59:43.921Z,1.55
2024-01-22T02:02:10.923Z,3.17
2024-01-22T02:04:37.718Z,3.38
2024-01-22T02:07:05.059Z,1.13
2024-01-22T02:09:48.905Z,5.55
2024-01-22T02:12:17.156Z,5.15
2024-01-22T02:14:44.671Z,2.83
2024-01-22T02:17:11.454Z,6.78
2024-01-22T02:19:38.261Z,2.97
2024-01-22T02:22:05.882Z,4.43
2024-01-22T02:24:32.574Z,6.60
2024-01-22T02:26:59.424Z,3.67
2024-01-22T02:29:26.101Z,8.20
2024-01-22T02:31:55.494Z,5.35
2024-01-22T02:34:22.169Z,6.88
2024-01-22T02:36:48.817Z,8.10
2024-01-22T02:39:15.894Z,8.98
2024-01-22T02:41:43.015Z,12.35
2024-01-22T02:44:09.801Z,8.75
2024-01-22T02:46:36.601Z,15.20
2024-01-22T02:49:03.532Z,19.52
2024-01-22T02:51:30.308Z,21.02
2024-01-22T02:53:57.048Z,24.85
2024-01-22T02:56:25.535Z,29.38
2024-01-22T02:58:52.286Z,21.55
2024-01-22T03:01:18.955Z,20.25
2024-01-22T03:03:45.747Z,20.40
2024-01-22T03:06:13.502Z,26.25
2024-01-22T03:08:40.261Z,18.08
2024-01-22T03:11:07.999Z,24.13
2024-01-22T03:13:35.211Z,20.83
2024-01-22T03:16:01.921Z,20.48
2024-01-22T03:18:29.682Z,15.40
2024-01-22T03:20:56.438Z,18.90
2024-01-22T03:23:23.139Z,16.58
2024-01-22T03:25:49.775Z,21.13
2024-01-22T03:28:16.421Z,14.43
2024-01-22T03:30:43.081Z,24.30
2024-01-22T03:33:09.911Z,22.70
2024-01-22T03:35:36.653Z,15.77
2024-01-22T03:38:03.602Z,20.40
2024-01-22T03:40:30.346Z,20.23
2024-01-22T03:42:57.056Z,16.45
2024-01-22T03:45:23.793Z,14.70
2024-01-22T03:47:50.595Z,20.88
2024-01-22T03:50:17.292Z,20.02
2024-01-22T03:52:43.945Z,14.27
2024-01-22T03:55:10.939Z,18.85
2024-01-22T03:57:37.573Z,21.63
2024-01-22T04:00:05.347Z,22.08
2024-01-22T04:02:35.429Z,17.50
2024-01-22T04:05:02.656Z,14.20
2024-01-22T04:07:29.311Z,16.80
2024-01-22T04:09:56.162Z,15.02
2024-01-22T04:12:22.959Z,18.13
2024-01-22T04:14:50.126Z,15.48
2024-01-22T04:17:16.890Z,12.82
2024-01-22T04:19:44.301Z,15.88
2024-01-22T04:22:11.253Z,13.02
2024-01-22T04:24:38.744Z,14.93
2024-01-22T04:27:05.482Z,15.85
2024-01-22T04:29:35.242Z,14.75
2024-01-22T04:32:02.379Z,16.15
2024-01-22T04:34:29.488Z,17.55
2024-01-22T04:36:56.497Z,12.50
2024-01-22T04:39:24.843Z,12.52
2024-01-22T04:41:52.148Z,19.85
2024-01-22T04:44:18.877Z,22.25
2024-01-22T04:46:45.550Z,11.82
2024-01-22T04:49:12.551Z,17.40
2024-01-22T04:51:42.947Z,14.60
2024-01-22T04:54:11.064Z,13.48
2024-01-22T04:56:47.768Z,14.63
2024-01-22T04:59:15.368Z,16.25
2024-01-22T05:01:43.350Z,21.02
2024-01-22T05:04:10.285Z,15.23
2024-01-22T05:06:37.123Z,18.13
2024-01-22T05:09:05.451Z,17.75
2024-01-22T05:11:32.452Z,19.42
2024-01-22T05:13:59.492Z,16.73
2024-01-22T05:16:26.271Z,19.77
2024-01-22T05:18:53.725Z,24.75
2024-01-22T05:21:22.796Z,23.05
2024-01-22T05:23:50.519Z,15.82
2024-01-22T05:26:17.693Z,21.30
2024-01-22T05:28:44.473Z,21.23
2024-01-22T05:31:11.423Z,21.58
2024-01-22T05:33:38.305Z,20.08
2024-01-22T05:36:05.258Z,17.83
2024-01-22T05:38:32.387Z,18.73
2024-01-22T05:40:59.057Z,15.40
2024-01-22T05:43:25.807Z,21.30
2024-01-22T05:45:53.089Z,20.98
2024-01-22T05:48:19.883Z,18.67
2024-01-22T05:50:46.667Z,27.13
2024-01-22T05:53:13.661Z,22.75
2024-01-22T05:55:42.172Z,17.13
2024-01-22T05:58:08.998Z,27.20
2024-01-22T06:00:35.791Z,22.88
2024-01-22T06:03:02.737Z,22.42
2024-01-22T06:05:29.417Z,25.25
2024-01-22T06:07:56.218Z,28.55
2024-01-22T06:10:22.986Z,24.92
2024-01-22T06:12:49.799Z,29.05
2024-01-22T06:15:16.658Z,33.38
2024-01-22T06:17:43.625Z,34.63
2024-01-22T06:20:11.285Z,27.05
2024-01-22T06:22:38.110Z,36.50
2024-01-22T06:25:06.813Z,24.90
2024-01-22T06:27:33.959Z,31.65
2024-01-22T06:30:01.244Z,30.45
2024-01-22T06:32:30.578Z,26.52
2024-01-22T06:34:57.770Z,29.05
2024-01-22T06:37:27.372Z,33.13
2024-01-22T06:39:54.202Z,28.08
2024-01-22T06:42:27.741Z,30.00
2024-01-22T06:45:01.312Z,33.25
2024-01-22T06:47:31.134Z,30.85
2024-01-22T06:49:58.163Z,28.65
2024-01-22T06:52:24.881Z,30.45
2024-01-22T06:54:51.522Z,28.95
2024-01-22T06:57:18.179Z,32.30
2024-01-22T06:59:44.915Z,36.58
2024-01-22T07:02:11.761Z,38.50
2024-01-22T07:04:38.397Z,37.10
2024-01-22T07:07:05.358Z,43.50
2024-01-22T07:09:32.316Z,32.58
2024-01-22T07:11:59.243Z,40.92
2024-01-22T07:14:26.241Z,49.50
2024-01-22T07:16:52.880Z,47.17
2024-01-22T07:19:19.721Z,45.88
2024-01-22T07:21:47.932Z,43.33
2024-01-22T07:24:14.649Z,37.22
2024-01-22T07:26:42.440Z,33.75
2024-01-22T07:29:10.376Z,34.20
2024-01-22T07:31:37.025Z,35.20
2024-01-22T07:34:04.178Z,33.38
2024-01-22T07:36:31.084Z,35.83
2024-01-22T07:38:59.004Z,39.38
2024-01-22T07:41:25.769Z,33.17
2024-01-22T07:43:52.661Z,29.52
2024-01-22T07:46:19.246Z,32.72
2024-01-22T07:48:46.226Z,26.15
2024-01-22T07:51:14.583Z,31.00
2024-01-22T07:53:41.417Z,34.28
2024-01-22T07:56:08.197Z,32.20
2024-01-22T07:58:34.891Z,37.05
2024-01-22T08:01:01.748Z,35.92
2024-01-22T08:03:29.403Z,26.15
2024-01-22T08:05:56.250Z,37.08
2024-01-22T08:08:23.176Z,38.72
2024-01-22T08:10:49.879Z,41.67
2024-01-22T08:13:16.617Z,31.35
2024-01-22T08:15:43.344Z,37.78
2024-01-22T08:18:10.171Z,23.35
2024-01-22T08:20:36.980Z,32.38
2024-01-22T08:23:03.749Z,39.78
2024-01-22T08:25:30.377Z,32.42
2024-01-22T08:27:57.500Z,33.28
2024-01-22T08:30:25.297Z,42.85
2024-01-22T08:32:52.902Z,35.78
2024-01-22T08:35:21.026Z,35.33
2024-01-22T08:37:53.511Z,27.55
2024-01-22T08:40:24.250Z,31.33
2024-01-22T08:43:00.392Z,30.88
2024-01-22T08:45:27.080Z,32.42
2024-01-22T08:47:53.975Z,27.95
2024-01-22T08:50:22.684Z,30.33
2024-01-22T08:52:51.321Z,33.17
2024-01-22T08:55:19.821Z,29.98
2024-01-22T08:57:46.805Z,36.95
2024-01-22T09:00:15.609Z,33.10
2024-01-22T09:02:43.928Z,24.80
2024-01-22T09:05:12.432Z,27.50
2024-01-22T09:07:39.386Z,32.50
2024-01-22T09:10:08.437Z,35.88
2024-01-22T09:12:36.287Z,31.00
2024-01-22T09:15:05.222Z,31.83
2024-01-22T09:17:32.069Z,32.35
2024-01-22T09:19:58.926Z,31.95
2024-01-22T09:22:29.898Z,36.00
2024-01-22T09:24:56.914Z,37.53
2024-01-22T09:27:25.050Z,33.75
2024-01-22T09:29:51.819Z,30.73
2024-01-22T09:32:19.766Z,26.23
2024-01-22T09:34:46.834Z,29.42
2024-01-22T09:37:13.536Z,27.10
2024-01-22T09:39:40.234Z,30.10
2024-01-22T09:42:07.463Z,31.33
2024-01-22T09:44:36.523Z,33.03
2024-01-22T09:47:06.188Z,24.17
2024-01-22T09:49:33.111Z,33.80
2024-01-22T09:52:01.706Z,25.63
2024-01-22T09:54:31.488Z,26.80
2024-01-22T09:57:03.834Z,32.35
2024-01-22T09:59:31.040Z,27.25
2024-01-22T10:01:57.919Z,28.98
2024-01-22T10:04:27.218Z,33.58
2024-01-22T10:06:54.260Z,27.80
2024-01-22T10:09:21.104Z,32.35
2024-01-22T10:11:48.379Z,27.52
2024-01-22T10:14:15.258Z,26.67
2024-01-22T10:16:41.966Z,54.85
2024-01-22T10:19:10.272Z,27.05
2024-01-22T10:21:38.981Z,28.05
2024-01-22T10:24:07.317Z,23.42
2024-01-22T10:26:35.428Z,27.45
2024-01-22T10:29:20.077Z,25.60
2024-01-22T10:31:57.577Z,25.05
2024-01-22T10:34:32.451Z,29.30
2024-01-22T10:37:13.565Z,23.25
2024-01-22T10:39:45.177Z,26.52
2024-01-22T10:42:15.889Z,26.73
2024-01-22T10:44:48.230Z,21.90
2024-01-22T10:47:16.346Z,27.67
2024-01-22T10:49:45.629Z,19.17
2024-01-22T10:52:14.171Z,28.80
2024-01-22T10:54:41.940Z,25.25
2024-01-22T10:57:38.580Z,29.23
2024-01-22T11:00:10.155Z,25.13
2024-01-22T11:02:43.931Z,21.95
2024-01-22T11:05:16.010Z,23.17
2024-01-22T11:07:45.365Z,27.02
2024-01-22T11:10:13.803Z,27.77
2024-01-22T11:12:49.926Z,25.05
2024-01-22T11:15:17.214Z,26.27
2024-01-22T11:17:45.516Z,21.10
2024-01-22T11:20:21.452Z,22.17
2024-01-22T11:23:06.102Z,30.92
2024-01-22T11:25:35.402Z,23.00
2024-01-22T11:28:02.084Z,22.75
2024-01-22T11:30:33.425Z,15.95
2024-01-22T11:35:38.245Z,23.77
2024-01-22T11:38:06.102Z,24.48
2024-01-22T11:40:54.082Z,17.38
2024-01-22T11:43:22.639Z,25.73
2024-01-22T11:45:59.074Z,16.55
2024-01-22T11:48:28.665Z,20.60
2024-01-22T11:50:57.886Z,24.45
2024-01-22T11:53:24.763Z,27.52
2024-01-22T11:56:03.554Z,18.33
2024-01-22T11:58:34.841Z,25.98
2024-01-22T12:03:32.878Z,29.08
2024-01-22T12:06:01.371Z,15.40
2024-01-22T12:08:28.886Z,21.35
2024-01-22T12:11:10.120Z,34.80
2024-01-22T12:13:45.726Z,30.58
2024-01-22T12:16:19.997Z,23.90
2024-01-22T12:18:47.149Z,17.33
2024-01-22T12:21:14.687Z,19.08
2024-01-22T12:23:42.590Z,16.25
2024-01-22T12:26:38.281Z,16.75
2024-01-22T12:29:05.333Z,20.52
2024-01-22T12:31:32.295Z,13.95
2024-01-22T12:34:12.777Z,20.58
2024-01-22T12:36:40.070Z,19.75
2024-01-22T12:39:08.612Z,23.13
2024-01-22T12:41:36.176Z,17.77
2024-01-22T12:44:03.444Z,21.63
2024-01-22T12:46:32.905Z,14.57
2024-01-22T12:49:00.215Z,22.27
2024-01-22T12:51:28.451Z,22.42
2024-01-22T12:53:56.339Z,16.20
2024-01-22T12:56:23.986Z,17.45
2024-01-22T12:58:53.093Z,24.95
2024-01-22T13:01:19.949Z,20.65
2024-01-22T13:03:47.204Z,24.67
2024-01-22T13:06:14.481Z,20.95
2024-01-22T13:08:41.273Z,27.65
2024-01-22T13:11:08.164Z,32.47
2024-01-22T13:13:35.337Z,28.35
2024-01-22T13:16:12.796Z,20.00
2024-01-22T13:18:45.532Z,17.63
2024-01-22T13:21:14.649Z,21.33
2024-01-22T13:23:42.078Z,22.60
2024-01-22T13:26:10.353Z,24.65
2024-01-22T13:28:38.132Z,22.95
2024-01-22T13:31:05.422Z,24.50
2024-01-22T13:33:32.666Z,19.30
2024-01-22T13:35:59.392Z,26.13
2024-01-22T13:38:29.595Z,25.17
2024-01-22T13:40:57.566Z,24.15
2024-01-22T13:43:24.412Z,21.15
2024-01-22T13:45:52.359Z,16.52
2024-01-22T13:48:19.227Z,19.73
2024-01-22T13:50:46.561Z,18.80
2024-01-22T13:53:13.498Z,22.30
2024-01-22T13:55:40.240Z,17.73
2024-01-22T13:58:09.052Z,17.15
2024-01-22T14:00:36.354Z,17.98
2024-01-22T14:03:05.832Z,21.02
2024-01-22T14:05:32.701Z,15.52
2024-01-22T14:08:00.564Z,17.33
2024-01-22T14:10:27.659Z,23.27
2024-01-22T14:12:54.432Z,18.98
2024-01-22T14:15:22.805Z,24.08
2024-01-22T14:17:49.938Z,21.95
2024-01-22T14:20:16.901Z,21.55
2024-01-22T14:22:44.301Z,20.52
2024-01-22T14:25:12.300Z,17.20
2024-01-22T14:27:39.180Z,14.80
2024-01-22T14:30:06.761Z,19.63
2024-01-22T14:32:33.860Z,19.30
2024-01-22T14:35:01.393Z,15.30
2024-01-22T14:37:28.500Z,19.00
2024-01-22T14:39:55.477Z,18.27
2024-01-22T14:42:22.590Z,18.33
2024-01-22T14:44:49.622Z,22.33
2024-01-22T14:47:16.708Z,16.95
2024-01-22T14:49:43.719Z,18.45
2024-01-22T14:52:11.570Z,17.85
2024-01-22T14:54:38.458Z,14.38
2024-01-22T14:57:05.271Z,21.98
2024-01-22T14:59:35.010Z,13.77
2024-01-22T15:02:01.636Z,18.33
2024-01-22T15:04:28.485Z,18.55
2024-01-22T15:06:55.221Z,15.82
2024-01-22T15:09:22.563Z,18.80
2024-01-22T15:11:49.522Z,14.15
2024-01-22T15:14:19.358Z,18.80
2024-01-22T15:16:49.771Z,17.90
2024-01-22T15:19:16.793Z,18.80
2024-01-22T15:21:44.035Z,16.40
2024-01-22T15:24:14.549Z,24.00
2024-01-22T15:26:41.625Z,20.52
2024-01-22T15:29:08.890Z,15.93
2024-01-22T15:31:37.711Z,17.85
2024-01-22T15:34:06.089Z,19.17
2024-01-22T15:36:33.770Z,17.73
2024-01-22T15:39:02.058Z,14.25
2024-01-22T15:41:29.254Z,15.07
2024-01-22T15:43:56.762Z,14.55
2024-01-22T15:46:23.624Z,20.63
2024-01-22T15:48:50.941Z,20.63
2024-01-22T15:51:17.875Z,17.85
2024-01-22T15:53:44.662Z,18.67
2024-01-22T15:56:11.311Z,19.52
2024-01-22T15:58:37.956Z,22.25
2024-01-22T16:01:05.945Z,15.65
2024-01-22T16:03:32.718Z,21.33
2024-01-22T16:06:04.180Z,18.85
2024-01-22T16:08:31.192Z,24.80
2024-01-22T16:10:57.964Z,16.33
2024-01-22T16:13:24.653Z,24.52
2024-01-22T16:15:51.327Z,20.25
2024-01-22T16:18:18.238Z,18.20
2024-01-22T16:20:45.718Z,17.67
2024-01-22T16:23:12.635Z,19.77
2024-01-22T16:25:39.622Z,16.60
2024-01-22T16:28:07.831Z,21.85
2024-01-22T16:30:41.893Z,14.43
2024-01-22T16:33:10.216Z,16.00
2024-01-22T16:35:36.975Z,18.38
2024-01-22T16:38:03.835Z,14.55
2024-01-22T16:40:30.571Z,15.82
2024-01-22T16:42:57.235Z,12.07
2024-01-22T16:45:23.919Z,13.90
2024-01-22T16:47:50.944Z,17.30
2024-01-22T16:50:17.764Z,11.05
2024-01-22T16:52:44.489Z,13.57
2024-01-22T16:55:12.547Z,14.38
2024-01-22T16:57:39.931Z,13.90
2024-01-22T17:00:07.569Z,15.05
2024-01-22T17:02:34.561Z,13.93
2024-01-22T17:05:01.327Z,11.43
2024-01-22T17:07:28.217Z,15.27
2024-01-22T17:09:55.030Z,21.08
2024-01-22T17:12:22.116Z,11.27
2024-01-22T17:14:49.290Z,20.42
2024-01-22T17:17:16.084Z,20.08
2024-01-22T17:19:43.094Z,17.55
2024-01-22T17:22:10.642Z,19.85
2024-01-22T17:24:38.349Z,16.65
2024-01-22T17:27:06.344Z,15.13
2024-01-22T17:29:33.345Z,14.68
2024-01-22T17:32:00.085Z,13.95
2024-01-22T17:34:27.039Z,13.95
2024-01-22T17:36:54.069Z,14.95
2024-01-22T17:39:20.995Z,13.95
2024-01-22T17:41:48.251Z,12.38
2024-01-22T17:44:16.303Z,10.68
2024-01-22T17:46:46.221Z,12.20
2024-01-22T17:49:13.607Z,11.23
2024-01-22T17:51:40.362Z,11.00
2024-01-22T17:54:08.586Z,13.98
2024-01-22T17:56:36.462Z,9.68
2024-01-22T17:59:03.204Z,8.82
2024-01-22T18:01:29.861Z,11.43
2024-01-22T18:03:59.264Z,17.77
2024-01-22T18:06:26.899Z,18.88
2024-01-22T18:08:53.848Z,18.17
2024-01-22T18:11:23.319Z,10.82
2024-01-22T18:13:50.203Z,13.95
2024-01-22T18:16:16.917Z,10.98
2024-01-22T18:18:43.758Z,6.97
2024-01-22T18:21:10.691Z,6.10
2024-01-22T18:23:37.465Z,9.38
2024-01-22T18:26:04.344Z,10.70
2024-01-22T18:28:31.564Z,8.25
2024-01-22T18:30:58.213Z,5.22
2024-01-22T18:33:26.964Z,8.93
2024-01-22T18:35:54.477Z,10.52
2024-01-22T18:38:21.401Z,9.60
2024-01-22T18:40:48.215Z,6.30
2024-01-22T18:43:16.881Z,10.52
2024-01-22T18:45:43.759Z,5.32
2024-01-22T18:48:10.610Z,9.75
2024-01-22T18:50:37.374Z,7.78
2024-01-22T18:53:05.214Z,14.88
2024-01-22T18:55:31.858Z,11.38
2024-01-22T18:57:58.802Z,5.82
2024-01-22T19:00:25.530Z,13.68
2024-01-22T19:02:54.200Z,17.08
2024-01-22T19:05:22.239Z,10.82
2024-01-22T19:07:51.478Z,16.95
2024-01-22T19:10:18.209Z,18.75
2024-01-22T19:12:45.270Z,20.73
2024-01-22T19:15:12.216Z,15.05
2024-01-22T19:17:38.925Z,13.32
2024-01-22T19:20:06.825Z,14.77
2024-01-22T19:22:33.586Z,18.85
2024-01-22T19:25:00.297Z,18.58
2024-01-22T19:27:27.042Z,20.73
2024-01-22T19:29:54.798Z,25.02
2024-01-22T19:32:21.515Z,17.92
2024-01-22T19:34:48.229Z,15.70
2024-01-22T19:37:15.153Z,20.63
2024-01-22T19:39:43.198Z,12.77
2024-01-22T19:42:10.028Z,16.25
2024-01-22T19:44:38.118Z,16.77
2024-01-22T19:47:05.384Z,21.55
2024-01-22T19:49:32.183Z,15.10
2024-01-22T19:51:58.875Z,19.77
2024-01-22T19:54:25.586Z,19.02
2024-01-22T19:56:52.766Z,23.63
2024-01-22T19:59:19.602Z,20.92
2024-01-22T20:01:46.461Z,25.02
2024-01-22T20:04:13.635Z,16.38
2024-01-22T20:06:40.548Z,13.48
2024-01-22T20:09:07.399Z,15.45
2024-01-22T20:11:34.496Z,17.80
2024-01-22T20:14:01.755Z,20.67
2024-01-22T20:16:28.397Z,18.20
2024-01-22T20:18:55.380Z,14.93
2024-01-22T20:21:23.321Z,21.98
2024-01-22T20:24:01.006Z,17.25
2024-01-22T20:26:35.478Z,17.05
2024-01-22T20:29:02.937Z,16.85
2024-01-22T20:31:32.705Z,18.17
2024-01-22T20:33:59.898Z,19.00
2024-01-22T20:36:27.715Z,15.85
2024-01-22T20:38:57.987Z,18.02
2024-01-22T20:41:25.190Z,16.33
2024-01-22T20:43:54.083Z,17.20
2024-01-22T20:46:23.504Z,19.13
2024-01-22T20:48:53.324Z,15.65
2024-01-22T20:51:20.107Z,15.80
2024-01-22T20:53:47.321Z,15.15
2024-01-22T20:56:14.177Z,18.90
2024-01-22T20:58:43.289Z,19.50
2024-01-22T21:01:13.089Z,18.63
2024-01-22T21:03:40.394Z,15.55
2024-01-22T21:06:09.928Z,16.75
2024-01-22T21:08:37.045Z,15.68
2024-01-22T21:11:04.243Z,17.27
2024-01-22T21:13:33.842Z,18.52
2024-01-22T21:16:02.838Z,11.07
2024-01-22T21:18:30.425Z,13.07
2024-01-22T21:20:58.441Z,14.23
2024-01-22T21:23:25.275Z,20.10
2024-01-22T21:25:51.944Z,16.80
2024-01-22T21:28:18.704Z,17.55
2024-01-22T21:30:45.411Z,25.23
2024-01-22T21:33:13.480Z,16.70
2024-01-22T21:35:40.475Z,20.05
2024-01-22T21:38:07.175Z,13.57
2024-01-22T21:40:33.810Z,21.23
2024-01-22T21:43:00.569Z,14.38
2024-01-22T21:45:30.719Z,19.33
2024-01-22T21:47:57.842Z,19.13
2024-01-22T21:50:24.584Z,22.10
2024-01-22T21:52:51.338Z,18.02
2024-01-22T21:55:18.061Z,16.63
2024-01-22T21:57:45.596Z,23.20
2024-01-22T22:00:12.779Z,12.65
2024-01-22T22:02:40.143Z,16.65
2024-01-22T22:05:09.609Z,13.35
2024-01-22T22:07:38.403Z,16.13
2024-01-22T22:10:08.047Z,13.07
2024-01-22T22:12:37.242Z,19.55
2024-01-22T22:15:04.366Z,14.45
2024-01-22T22:17:31.254Z,16.88
2024-01-22T22:19:58.496Z,12.88
2024-01-22T22:22:25.310Z,15.60
2024-01-22T22:24:51.965Z,21.88
2024-01-22T22:27:18.605Z,18.52
2024-01-22T22:29:45.282Z,18.25
2024-01-22T22:32:11.955Z,17.98
2024-01-22T22:34:38.855Z,22.27
2024-01-22T22:37:05.548Z,20.00
2024-01-22T22:39:32.284Z,15.48
2024-01-22T22:41:58.926Z,16.05
2024-01-22T22:44:25.668Z,21.13
2024-01-22T22:46:52.326Z,16.83
2024-01-22T22:49:19.194Z,12.35
2024-01-22T22:51:45.953Z,18.13
2024-01-22T22:54:12.698Z,18.20
2024-01-22T22:56:39.921Z,15.05
2024-01-22T22:59:06.775Z,14.07
2024-01-22T23:01:33.525Z,14.93
2024-01-22T23:04:02.689Z,10.75
2024-01-22T23:06:30.283Z,15.23
2024-01-22T23:08:57.564Z,17.73
2024-01-22T23:11:24.369Z,15.07
2024-01-22T23:13:51.084Z,16.58
2024-01-22T23:16:17.746Z,13.85
2024-01-22T23:18:44.603Z,14.38
2024-01-22T23:21:12.140Z,12.82
2024-01-22T23:23:39.991Z,13.52
2024-01-22T23:26:07.152Z,15.27
2024-01-22T23:28:34.027Z,18.83
2024-01-22T23:31:01.579Z,15.85
2024-01-22T23:33:28.478Z,17.20
2024-01-22T23:35:55.280Z,16.98
2024-01-22T23:38:22.137Z,18.42
2024-01-22T23:40:49.028Z,19.17
2024-01-22T23:43:15.944Z,16.40
2024-01-22T23:45:44.730Z,20.90
2024-01-22T23:48:12.343Z,14.60
2024-01-22T23:50:39.226Z,16.05
2024-01-22T23:53:06.020Z,17.13
2024-01-22T23:55:32.768Z,15.85
2024-01-22T23:57:59.475Z,13.43
